Aviation Digital Data Service (ADDS)

Output produced by METARs form (2200 UTC 30 September 2016)
found at http://www.aviationweather.gov/adds/metars/
 
KDUJ 302153Z AUTO 10008KT 10SM OVC009 13/11 A3018 RMK AO2 SLP219 T01330106
KDUJ 302145Z AUTO 09007KT 10SM OVC009 13/11 A3018 RMK AO2 T01330106
KDUJ 302053Z AUTO 10012G24KT 10SM OVC012 14/11 A3017 RMK AO2 SLP214 T01390111 56010
KDUJ 301953Z AUTO 10011G17KT 10SM OVC010 14/11 A3017 RMK AO2 PK WND 10026/1915 SLP216 T01390111
KDUJ 301853Z AUTO 11013G23KT 10SM OVC011 14/11 A3018 RMK AO2 SLP219 T01390111
KDUJ 301753Z AUTO 11012G21KT 10SM OVC011 14/11 A3020 RMK AO2 SLP225 60001 T01390106 10139 20117 58010
KDUJ 301653Z AUTO 09014G18KT 10SM OVC010 13/11 A3021 RMK AO2 CIG 006V013 SLP229 T01330106
KDUJ 301600Z AUTO 09009G17KT 3SM BR OVC006 13/11 A3022 RMK AO2 T01330111
KDUJ 301553Z AUTO 10010G17KT 2 1/2SM BR OVC006 13/11 A3022 RMK AO2 SLP234 T01280111
KDUJ 301542Z AUTO 08011KT 2SM BR OVC006 13/11 A3023 RMK AO2 CIG 004V008 T01280111
KDUJ 301453Z AUTO 11013KT 10SM OVC007 13/11 A3023 RMK AO2 SLP236 60001 T01280106 51004
KDUJ 301353Z AUTO 10012KT 10SM OVC007 12/10 A3023 RMK AO2 CIG 005V010 SLP237 P0001 T01170100
KDUJ 301253Z AUTO 10011KT 10SM OVC008 12/10 A3022 RMK AO2 RAB03E16 CIG 006V010 SLP235 P0000 T01170100
KDUJ 301153Z AUTO 09010KT 10SM OVC008 12/09 A3022 RMK AO2 RAB1056E11 CIG 006V011 SLP232 P0002 60011 70069 T01170094 10122 20117 58001
KDUJ 301053Z AUTO 09010KT 10SM BKN006 OVC010 12/10 A3022 RMK AO2 RAB0955E53 CIG 004V008 SLP233 P0007 T01170100
KDUJ 300953Z AUTO 10009KT 9SM OVC006 12/11 A3022 RMK AO2 RAB0857E08 CIG 005V009 SLP234 P0001 T01170106
KDUJ 300904Z AUTO 08008G15KT 7SM -RA OVC008 12/10 A3022 RMK AO2 RAB0857 CIG 006V012 P0001 T01220100
KDUJ 300853Z AUTO 09007KT 10SM OVC010 12/11 A3022 RMK AO2 RAE29 CIG 007V012 SLP232 P0001 60001 T01220106 51001
KDUJ 300753Z AUTO 10011G19KT 10SM -RA OVC007 12/10 A3022 RMK AO2 RAB50 CIG 006V011 SLP231 P0000 T01220100
KDUJ 300653Z AUTO 09009KT 10SM OVC006 12/11 A3022 RMK AO2 SLP234 T01220106
KDUJ 300553Z AUTO 09010G21KT 10SM OVC006 12/11 A3022 RMK AO2 SLP230 T01220106 10133 20122 55005
KDUJ 300453Z AUTO 08010G17KT 10SM OVC006 13/11 A3021 RMK AO2 SLP229 T01280106 401610128
KDUJ 300353Z AUTO 09015G24KT 10SM OVC007 13/11 A3022 RMK AO2 SLP232 T01280106
KDUJ 300253Z AUTO 09015G22KT 10SM OVC007 13/11 A3023 RMK AO2 SLP237 T01330111 51003
KDUJ 300153Z AUTO 10012KT 10SM OVC008 13/11 A3023 RMK AO2 CIG 007V013 SLP236 T01330111
KDUJ 300053Z AUTO 10012G20KT 10SM OVC008 13/11 A3024 RMK AO2 CIG 006V012 SLP238 T01330111
KDUJ 300020Z AUTO 09013G22KT 10SM OVC010 13/11 A3023 RMK AO2 CIG 007V013 T01330111
KDUJ 292353Z AUTO 10014G21KT 10SM BKN008 OVC012 13/12 A3022 RMK AO2 CIG 006V010 SLP233 60002 T01330117 10150 20133 51008
KDUJ 292253Z AUTO 10013G23KT 10SM OVC008 14/12 A3022 RMK AO2 CIG 007V012 SLP231 T01390117
KDUJ 292153Z AUTO 09011G19KT 10SM OVC008 14/12 A3020 RMK AO2 RAB07E40 CIG 006V012 SLP226 P0001 T01390122
KDUJ 292053Z AUTO 11014G20KT 6SM BR OVC007 14/12 A3020 RMK AO2 RAB05E16 CIG 005V010 SLP224 P0001 60001 T01390122 50003
KDUJ 291953Z AUTO 09013G16KT 6SM BR OVC007 14/12 A3020 RMK AO2 CIG 006V010 SLP224 T01440122
KDUJ 291853Z AUTO 10008G17KT 10SM OVC008 14/12 A3020 RMK AO2 SLP224 T01440122
KDUJ 291753Z AUTO 10014G22KT 10SM OVC009 15/12 A3019 RMK AO2 SLP219 60056 T01500122 10150 20128 58003
KDUJ 291653Z AUTO 10012G20KT 10SM OVC008 14/12 A3019 RMK AO2 RAB01E12 CIG 007V013 SLP220 P0000 T01440122
KDUJ 291634Z AUTO 10010G18KT 10SM OVC010 14/12 A3019 RMK AO2 RAB01E12 CIG 005V015 P0000 T01440122
KDUJ 291553Z AUTO 11009G17KT 10SM OVC007 14/12 A3020 RMK AO2 SLP223 T01390117
KDUJ 291501Z AUTO 10011G17KT 6SM BR OVC008 13/12 A3020 RMK AO2 T01330117
KDUJ 291453Z AUTO 10009KT 7SM OVC010 13/12 A3020 RMK AO2 RAE45 SLP223 P0019 60056 T01330117 53013
KDUJ 291440Z AUTO 08011G19KT 3SM -RA BR BKN010 OVC018 13/12 A3019 RMK AO2 P0019 T01330117
KDUJ 291437Z AUTO 09007G19KT 2 1/2SM -RA BR FEW007 SCT012 OVC018 13/12 A3019 RMK AO2 P0019 T01330117
KDUJ 291432Z AUTO 09011G18KT 1 3/4SM -RA BR SCT012 BKN018 OVC033 13/12 A3020 RMK AO2 P0018 T01330117
KDUJ 291412Z AUTO 11012G17KT 3SM -RA BR FEW005 BKN018 OVC035 13/11 A3019 RMK AO2 P0015 T01280111
KDUJ 291404Z AUTO 11011G17KT 1SM RA BR FEW003 OVC014 13/11 A3019 RMK AO2 P0014 T01280111
KDUJ 291355Z AUTO 12010KT 3/4SM +RA BR FEW008 OVC017 13/11 A3019 RMK AO2 P0004 T01280111
KDUJ 291353Z AUTO 12011KT 1SM RA BR FEW010 OVC017 13/11 A3019 RMK AO2 SLP219 P0031 T01280111
KDUJ 291346Z AUTO 11010KT 1 3/4SM RA BR FEW010 OVC017 13/11 A3018 RMK AO2 P0020 T01280111
KDUJ 291339Z AUTO 11011KT 3SM -RA BR FEW008 SCT012 OVC017 13/11 A3018 RMK AO2 P0014 T01280111
KDUJ 291253Z AUTO 10007KT 6SM -RA BR OVC011 13/11 A3017 RMK AO2 RAE14B49 SLP213 P0006 T01280111
KDUJ 291215Z AUTO 08007KT 10SM SCT008 OVC014 13/11 A3016 RMK AO2 RAE14 P0005 T01280111
KDUJ 291207Z AUTO 08009KT 3SM -RA BR FEW005 SCT011 OVC016 13/11 A3016 RMK AO2 P0005 T01280111
KDUJ 291153Z AUTO 07008KT 1 1/4SM RA BR FEW009 BKN017 OVC035 13/11 A3016 RMK AO2 SLP209 P0010 60038 70038 T01280111 10150 20128 50003
KDUJ 291150Z AUTO 07008KT 1 1/4SM RA BR FEW009 BKN019 OVC035 13/11 A3016 RMK AO2 P0009
KDUJ 291143Z AUTO 08009KT 2SM -RA BR SCT009 BKN022 OVC037 13/11 A3016 RMK AO2 P0004 T01280111
KDUJ 291053Z AUTO 09009KT 10SM -RA SCT011 SCT032 OVC080 13/11 A3015 RMK AO2 SLP205 P0008 T01330111
KDUJ 291025Z AUTO 10009KT 9SM -RA BKN009 BKN049 OVC070 13/12 A3015 RMK AO2 P0005 T01330117
KDUJ 291009Z AUTO 08008KT 8SM -RA BKN010 BKN055 OVC070 13/12 A3014 RMK AO2 P0003 T01330117